createdAt,value
2018-09-15T08:17:46.786Z,10.66
2018-09-15T08:17:46.875Z,5.86
2018-09-15T08:17:46.906Z,6.87
2018-09-15T08:17:46.972Z,5.72
2018-09-15T08:17:47.025Z,5.68
2018-09-15T08:17:47.113Z,7.32
2018-09-15T08:17:47.156Z,5.57
2018-09-15T08:17:47.219Z,4.28
2018-09-15T08:17:47.283Z,6.18
2018-09-15T08:17:47.343Z,5.91
2018-09-15T08:17:47.441Z,6.51
2018-09-15T08:17:47.485Z,7.99
2018-09-15T08:17:47.568Z,6.12
2018-09-15T08:17:47.648Z,5.54
2018-09-15T08:17:47.691Z,6.27
2018-09-15T08:17:47.753Z,6.96
2018-09-15T08:17:47.836Z,5.41
2018-09-15T08:17:47.884Z,5.43
2018-09-15T08:17:47.951Z,6.44
2018-09-15T08:17:48.014Z,7.16
2018-09-15T08:17:48.051Z,5.39
2018-09-15T08:17:48.121Z,5.63
2018-09-15T08:17:48.191Z,7.49
2018-09-15T08:17:48.246Z,5.63
2018-09-15T08:17:48.342Z,6.1
2018-09-15T08:17:48.405Z,6.24
2018-09-15T08:17:48.523Z,6.16
2018-09-15T08:17:48.625Z,5.58
2018-09-15T08:17:48.686Z,5.82
2018-09-15T08:17:48.725Z,6.92
2018-09-15T08:17:48.779Z,6.45
2018-09-15T08:17:48.857Z,5.36
2018-09-15T08:17:48.928Z,6.85
2018-09-15T08:17:49.029Z,5.11
2018-09-15T08:17:49.070Z,5.87
2018-09-15T08:17:49.168Z,6.2
2018-09-15T08:17:49.212Z,5.84
2018-09-15T08:17:49.283Z,5.44
2018-09-15T08:17:49.312Z,5.59
2018-09-15T08:17:49.429Z,5.32
2018-09-15T08:17:49.492Z,6.17
2018-09-15T08:17:49.565Z,6.95
2018-09-15T08:17:49.630Z,5.95
2018-09-15T08:17:49.687Z,5.42
2018-09-15T08:17:49.741Z,5.59
2018-09-15T08:17:49.804Z,6.03
2018-09-15T08:17:49.859Z,5.3
2018-09-15T08:17:49.913Z,6.64
2018-09-15T08:17:49.982Z,6.77
2018-09-15T08:17:50.053Z,7.69
2018-09-15T08:17:50.105Z,7.13
2018-09-15T08:17:50.201Z,6.56
2018-09-15T08:17:50.289Z,8.43
2018-09-15T08:17:50.346Z,5.7
2018-09-15T08:17:50.425Z,6.39
2018-09-15T08:17:50.481Z,5.89
2018-09-15T08:17:50.531Z,6.37
2018-09-15T08:17:50.766Z,7.23
2018-09-15T08:17:50.865Z,6.62
2018-09-15T08:17:50.896Z,5.36
2018-09-15T08:17:50.986Z,6.46
2018-09-15T08:17:51.069Z,5.32
2018-09-15T08:17:51.121Z,6.76
2018-09-15T08:17:51.187Z,6.16
2018-09-15T08:17:51.279Z,6.62
2018-09-15T08:17:51.342Z,5.57
2018-09-15T08:17:51.419Z,5.83
2018-09-15T08:17:51.480Z,9
2018-09-15T08:17:51.572Z,11.26
2018-09-15T08:17:51.621Z,11.01
2018-09-15T08:17:51.672Z,10.38
2018-09-15T08:17:51.716Z,10.16
2018-09-15T08:17:51.887Z,10.83
2018-09-15T08:17:51.895Z,13.4
2018-09-15T08:17:51.936Z,9.54
2018-09-15T08:17:52.009Z,10.72
2018-09-15T08:17:52.096Z,12.59
2018-09-15T08:17:52.127Z,11.42
2018-09-15T08:17:52.199Z,11.09
2018-09-15T08:17:52.281Z,11.13
2018-09-15T08:17:52.309Z,11
2018-09-15T08:17:52.368Z,12.18
2018-09-15T08:17:52.457Z,11.25
2018-09-15T08:17:52.547Z,8.8
2018-09-15T08:17:52.612Z,12.64
2018-09-15T08:17:52.658Z,13.15
2018-09-15T08:17:52.760Z,14.88
2018-09-15T08:17:52.791Z,11.05
2018-09-15T08:17:52.856Z,12.16
2018-09-15T08:17:52.932Z,11.62
2018-09-15T08:17:52.994Z,12.66
2018-09-15T08:17:53.030Z,11.53
2018-09-15T08:17:53.136Z,11.2
2018-09-15T08:17:53.183Z,9.84
2018-09-15T08:17:53.231Z,9.79
2018-09-15T08:17:53.294Z,10.91
2018-09-15T08:17:53.360Z,10.79
2018-09-15T08:17:53.456Z,9.7
2018-09-15T08:17:53.533Z,9.74
2018-09-15T08:17:53.578Z,10.45
2018-09-15T08:17:53.636Z,10.71
2018-09-15T08:17:53.696Z,11.3
2018-09-15T08:17:53.798Z,10.62
2018-09-15T08:17:53.835Z,11.86
2018-09-15T08:17:53.881Z,11.35
2018-09-15T08:17:53.969Z,11.23
2018-09-15T08:17:54.033Z,11.95
2018-09-15T08:17:54.126Z,11.2
2018-09-15T08:17:54.188Z,11.49
2018-09-15T08:17:54.286Z,9.35
2018-09-15T08:17:54.390Z,11.24
2018-09-15T08:17:54.431Z,12.16
2018-09-15T08:17:54.503Z,12.14
2018-09-15T08:17:54.580Z,11.91
2018-09-15T08:17:54.632Z,13.03
2018-09-15T08:17:54.700Z,9.88
2018-09-15T08:17:54.781Z,10.32
2018-09-15T08:17:54.831Z,10.04
2018-09-15T08:17:54.909Z,10.75
2018-09-15T08:17:54.990Z,8.95
2018-09-15T08:17:55.046Z,12.43
2018-09-15T08:17:55.077Z,9.98
2018-09-15T08:17:55.193Z,13.32
2018-09-15T08:17:55.275Z,11.35
2018-09-15T08:17:55.392Z,11.37
2018-09-15T08:17:55.475Z,13.53
2018-09-15T08:17:55.522Z,12.66
2018-09-15T08:17:55.582Z,11.83
2018-09-15T08:17:55.641Z,11.98
2018-09-15T08:17:55.717Z,12.45
2018-09-15T08:17:55.786Z,11.91
2018-09-15T08:17:55.855Z,12.94
2018-09-15T08:17:55.942Z,14.99
2018-09-15T08:17:56.019Z,11.05
2018-09-15T08:17:56.044Z,11.99
2018-09-15T08:17:56.151Z,11.95
2018-09-15T08:17:56.225Z,10.53
2018-09-15T08:17:56.310Z,12.58
2018-09-15T08:17:56.377Z,14.26
2018-09-15T08:17:56.451Z,10.66
2018-09-15T08:17:56.490Z,12.85
2018-09-15T08:17:56.565Z,12.13
2018-09-15T08:17:56.626Z,12.25
2018-09-15T08:17:56.712Z,10.63
2018-09-15T08:17:56.779Z,10.62
2018-09-15T08:17:56.852Z,12.06
2018-09-15T08:17:56.917Z,10.8
2018-09-15T08:17:57.026Z,12.16
2018-09-15T08:17:57.130Z,13.06
2018-09-15T08:17:57.209Z,13.1
2018-09-15T08:17:57.342Z,10.31
2018-09-15T08:17:57.350Z,11.64
2018-09-15T08:17:57.438Z,13.52
2018-09-15T08:17:57.475Z,12.86
2018-09-15T08:17:57.546Z,11.62
2018-09-15T08:17:57.628Z,13.27
2018-09-15T08:17:57.702Z,11.86
2018-09-15T08:17:57.799Z,10.79
2018-09-15T08:17:57.820Z,12.29
2018-09-15T08:17:57.888Z,12.67
2018-09-15T08:17:57.998Z,10.98
2018-09-15T08:17:58.055Z,12.7
2018-09-15T08:17:58.118Z,11.58
2018-09-15T08:17:58.217Z,14.33
2018-09-15T08:17:58.264Z,14.24
2018-09-15T08:17:58.335Z,11.96
2018-09-15T08:17:58.410Z,12.68
2018-09-15T08:17:58.468Z,13.43
2018-09-15T08:17:58.549Z,13.78
2018-09-15T08:17:58.606Z,11.37
2018-09-15T08:17:58.655Z,11.88
2018-09-15T08:17:58.764Z,12.75
2018-09-15T08:17:58.840Z,11.52
2018-09-15T08:17:58.919Z,12.69
2018-09-15T08:17:58.970Z,11.68
2018-09-15T08:17:59.045Z,12.09
2018-09-15T08:17:59.132Z,11.32
2018-09-15T08:17:59.173Z,12.05
2018-09-15T08:17:59.250Z,12.25
2018-09-15T08:17:59.316Z,12.53
2018-09-15T08:17:59.420Z,12.72
2018-09-15T08:17:59.453Z,10.88
2018-09-15T08:17:59.550Z,12.52
2018-09-15T08:17:59.646Z,11.05
2018-09-15T08:17:59.726Z,12.12
2018-09-15T08:17:59.779Z,10.53
2018-09-15T08:17:59.858Z,12.99
2018-09-15T08:17:59.909Z,12.03
2018-09-15T08:17:59.999Z,11.4
2018-09-15T08:18:00.055Z,8.64
2018-09-15T08:18:00.149Z,11.07
2018-09-15T08:18:00.189Z,12.24
2018-09-15T08:18:00.229Z,10.93
2018-09-15T08:18:00.340Z,11.46
2018-09-15T08:18:00.377Z,10.92
2018-09-15T08:18:00.433Z,9.21
2018-09-15T08:18:00.508Z,9.3
2018-09-15T08:18:00.584Z,9.46
2018-09-15T08:18:00.653Z,12.08
2018-09-15T08:18:00.699Z,9.54
2018-09-15T08:18:00.792Z,11
2018-09-15T08:18:00.827Z,10.28
2018-09-15T08:18:00.900Z,9.86
2018-09-15T08:18:00.997Z,9.54
2018-09-15T08:18:01.043Z,11.5
2018-09-15T08:18:01.093Z,8.77
2018-09-15T08:18:01.221Z,9.6
2018-09-15T08:18:01.286Z,11.76
2018-09-15T08:18:01.345Z,10.73
2018-09-15T08:18:01.430Z,9.21
2018-09-15T08:18:01.506Z,8.63
2018-09-15T08:18:01.583Z,9.74
2018-09-15T08:18:01.663Z,11.55
2018-09-15T08:18:01.688Z,10.47
2018-09-15T08:18:01.769Z,10.67
2018-09-15T08:18:01.813Z,11.61
2018-09-15T08:18:01.898Z,10.24
2018-09-15T08:18:01.984Z,11.1
2018-09-15T08:18:02.105Z,9.16
2018-09-15T08:18:02.188Z,10.03
2018-09-15T08:18:02.280Z,9.29
2018-09-15T08:18:02.338Z,11.1
2018-09-15T08:18:02.411Z,13.38
2018-09-15T08:18:02.487Z,12.46
2018-09-15T08:18:02.533Z,12.89
2018-09-15T08:18:02.616Z,9.93
2018-09-15T08:18:02.688Z,10.19
2018-09-15T08:18:02.778Z,11.91
2018-09-15T08:18:02.860Z,11.88
2018-09-15T08:18:02.905Z,12.48
2018-09-15T08:18:02.972Z,10.85
2018-09-15T08:18:03.085Z,11.83
2018-09-15T08:18:03.135Z,9.91
2018-09-15T08:18:03.191Z,12.5
2018-09-15T08:18:03.253Z,10.63
2018-09-15T08:18:03.327Z,12.23
2018-09-15T08:18:03.383Z,11.03
2018-09-15T08:18:03.449Z,11.21
2018-09-15T08:18:03.508Z,10.43
2018-09-15T08:18:03.592Z,11.84
2018-09-15T08:18:03.617Z,10.49
2018-09-15T08:18:03.694Z,12.36
2018-09-15T08:18:03.773Z,10.2
2018-09-15T08:18:03.933Z,10.54
2018-09-15T08:18:04.009Z,9.98
2018-09-15T08:18:04.073Z,10.6
2018-09-15T08:18:04.136Z,10.52
2018-09-15T08:18:04.220Z,10.42
2018-09-15T08:18:04.262Z,11.19
2018-09-15T08:18:04.322Z,11.37
2018-09-15T08:18:04.476Z,9.6
2018-09-15T08:18:04.494Z,10.92
2018-09-15T08:18:04.529Z,11.95
2018-09-15T08:18:04.613Z,9.24
2018-09-15T08:18:04.668Z,9.97
2018-09-15T08:18:04.848Z,10.11
2018-09-15T08:18:04.918Z,9.18
2018-09-15T08:18:04.965Z,9.17
2018-09-15T08:18:05.039Z,9.98
2018-09-15T08:18:05.104Z,8.27
2018-09-15T08:18:05.196Z,9.09
2018-09-15T08:18:05.231Z,10.62
2018-09-15T08:18:05.281Z,9.05
2018-09-15T08:18:05.349Z,10.72
2018-09-15T08:18:05.420Z,11.05
2018-09-15T08:18:05.473Z,9.57
2018-09-15T08:18:05.546Z,9.03
2018-09-15T08:18:05.634Z,7.21
2018-09-15T08:18:05.710Z,8.84
2018-09-15T08:18:05.823Z,8.05
2018-09-15T08:18:05.929Z,8.44
2018-09-15T08:18:06.019Z,7.49
2018-09-15T08:18:06.049Z,7.55
2018-09-15T08:18:06.085Z,7.78
2018-09-15T08:18:06.158Z,8.54
2018-09-15T08:18:06.221Z,7.21
2018-09-15T08:18:06.294Z,7.55
2018-09-15T08:18:06.365Z,7.26
2018-09-15T08:18:06.407Z,8.27
2018-09-15T08:18:06.498Z,8.75
2018-09-15T08:18:06.567Z,7.11
2018-09-15T08:18:06.611Z,8.18
2018-09-15T08:18:06.738Z,7.42
2018-09-15T08:18:06.807Z,8.2
2018-09-15T08:18:06.881Z,8.63
2018-09-15T08:18:06.950Z,8.49
2018-09-15T08:18:06.995Z,6.24
2018-09-15T08:18:07.071Z,6.92
2018-09-15T08:18:07.131Z,6.7
2018-09-15T08:18:07.204Z,6.33
2018-09-15T08:18:07.290Z,6.59
2018-09-15T08:18:07.322Z,6.35
2018-09-15T08:18:07.392Z,7.06
2018-09-15T08:18:07.479Z,7
2018-09-15T08:18:07.582Z,6.78
2018-09-15T08:18:07.634Z,5.55
2018-09-15T08:18:07.709Z,6.06
2018-09-15T08:18:07.770Z,5.81
2018-09-15T08:18:07.836Z,5.67
2018-09-15T08:18:07.904Z,6.84
2018-09-15T08:18:07.979Z,5.47
2018-09-15T08:18:08.014Z,6.17
2018-09-15T08:18:08.109Z,6.45
2018-09-15T08:18:08.154Z,5.86
2018-09-15T08:18:08.185Z,5.24
2018-09-15T08:18:08.315Z,7.47
2018-09-15T08:18:08.395Z,7.05
2018-09-15T08:18:08.480Z,5.74
2018-09-15T08:18:08.543Z,4.47
2018-09-15T08:18:08.624Z,5.91
2018-09-15T08:18:08.655Z,7.29
2018-09-15T08:18:08.732Z,5.07
2018-09-15T08:18:08.800Z,6.58
2018-09-15T08:18:08.861Z,5.7
2018-09-15T08:18:08.915Z,5.1
2018-09-15T08:18:08.994Z,6.02
2018-09-15T08:18:09.058Z,6.76
2018-09-15T08:18:09.127Z,5.75
2018-09-15T08:18:09.242Z,6.43
2018-09-15T08:18:09.288Z,5.1
2018-09-15T08:18:09.354Z,5.39
2018-09-15T08:18:09.421Z,6.66
2018-09-15T08:18:09.499Z,6.7
2018-09-15T08:18:09.556Z,6.44
2018-09-15T08:18:09.646Z,6.08
2018-09-15T08:18:09.726Z,5.57
2018-09-15T08:18:09.790Z,5.43
2018-09-15T08:18:09.849Z,5.13
2018-09-15T08:18:09.941Z,4.61
2018-09-15T08:18:10.028Z,4.93
2018-09-15T08:18:10.103Z,5.66
2018-09-15T08:18:10.127Z,5.03
2018-09-15T08:18:10.228Z,6.3
2018-09-15T08:18:10.294Z,4.79
2018-09-15T08:18:10.379Z,4.46
2018-09-15T08:18:10.443Z,4.37
2018-09-15T08:18:10.479Z,5.1
2018-09-15T08:18:10.550Z,4.74
2018-09-15T08:18:10.615Z,4.91
2018-09-15T08:18:10.667Z,4.57
2018-09-15T08:18:10.745Z,4.49
2018-09-15T08:18:10.858Z,4.66
2018-09-15T08:18:10.915Z,4.42
2018-09-15T08:18:10.986Z,4.44
2018-09-15T08:18:11.083Z,4.6
2018-09-15T08:18:11.117Z,5.43
2018-09-15T08:18:11.172Z,5.45
2018-09-15T08:18:11.218Z,4.06
2018-09-15T08:18:11.353Z,5.18
2018-09-15T08:18:11.366Z,5
2018-09-15T08:18:11.437Z,5.25
2018-09-15T08:18:11.485Z,5.95
2018-09-15T08:18:11.620Z,6.14
2018-09-15T08:18:11.661Z,6.67
2018-09-15T08:18:11.770Z,7.41
2018-09-15T08:18:11.794Z,6.61
2018-09-15T08:18:11.896Z,8.34
2018-09-15T08:18:11.938Z,9.29
2018-09-15T08:18:11.994Z,6.72
2018-09-15T08:18:12.079Z,7.73
2018-09-15T08:18:12.128Z,8.18
2018-09-15T08:18:12.187Z,8.64
2018-09-15T08:18:12.249Z,8.35
2018-09-15T08:18:12.317Z,7.79
2018-09-15T08:18:12.394Z,9.17
2018-09-15T08:18:12.497Z,8.47
2018-09-15T08:18:12.604Z,7.51
2018-09-15T08:18:12.644Z,9.23
2018-09-15T08:18:12.718Z,10.26
2018-09-15T08:18:12.792Z,7.03
2018-09-15T08:18:12.853Z,7.5
2018-09-15T08:18:12.920Z,8.26
2018-09-15T08:18:13.008Z,8.78
2018-09-15T08:18:13.058Z,9.56
2018-09-15T08:18:13.134Z,8.21
2018-09-15T08:18:13.221Z,7.17
2018-09-15T08:18:13.298Z,8.28
2018-09-15T08:18:13.411Z,7.54
2018-09-15T08:18:13.474Z,8.21
2018-09-15T08:18:13.519Z,9.12
2018-09-15T08:18:13.570Z,8.61
2018-09-15T08:18:13.644Z,8.46
2018-09-15T08:18:13.708Z,10.27
2018-09-15T08:18:13.772Z,13.33
2018-09-15T08:18:13.847Z,9.99
2018-09-15T08:18:13.920Z,11.93
2018-09-15T08:18:13.948Z,10.64
2018-09-15T08:18:14.046Z,11.96
2018-09-15T08:18:14.074Z,8.27
2018-09-15T08:18:14.185Z,8.01
2018-09-15T08:18:14.249Z,7.76
2018-09-15T08:18:14.308Z,7.46
2018-09-15T08:18:14.408Z,9.7
2018-09-15T08:18:14.442Z,8.42
2018-09-15T08:18:14.516Z,9.42
2018-09-15T08:18:14.589Z,11.37
2018-09-15T08:18:14.653Z,9.65
2018-09-15T08:18:14.699Z,10.18
2018-09-15T08:18:14.745Z,8.79
2018-09-15T08:18:14.830Z,8.31
2018-09-15T08:18:14.894Z,8.47
2018-09-15T08:18:15.009Z,7.22
2018-09-15T08:18:15.057Z,8.57
2018-09-15T08:18:15.110Z,9.13
2018-09-15T08:18:15.169Z,10.75
2018-09-15T08:18:15.260Z,8.6
2018-09-15T08:18:15.312Z,10.34
2018-09-15T08:18:15.382Z,8.84
2018-09-15T08:18:15.472Z,8
2018-09-15T08:18:15.539Z,9.05
2018-09-15T08:18:15.558Z,9.2
2018-09-15T08:18:15.641Z,8.26
2018-09-15T08:18:15.690Z,8.84
2018-09-15T08:18:15.803Z,8.63
2018-09-15T08:18:15.853Z,8.94
2018-09-15T08:18:15.951Z,7.42
2018-09-15T08:18:15.991Z,8.46
2018-09-15T08:18:16.070Z,7.86
2018-09-15T08:18:16.113Z,9.61
2018-09-15T08:18:16.179Z,8.5
2018-09-15T08:18:16.257Z,9.23
2018-09-15T08:18:16.293Z,7.44
2018-09-15T08:18:16.390Z,8.77
2018-09-15T08:18:16.480Z,9.01
2018-09-15T08:18:16.505Z,8.31
2018-09-15T08:18:16.600Z,9
2018-09-15T08:18:16.668Z,8.49
2018-09-15T08:18:16.739Z,7.6
2018-09-15T08:18:16.796Z,7.24
2018-09-15T08:18:16.844Z,7.34
2018-09-15T08:18:16.917Z,7.89
2018-09-15T08:18:16.993Z,11.05
2018-09-15T08:18:17.037Z,7.62
2018-09-15T08:18:17.117Z,8.99
2018-09-15T08:18:17.183Z,9.16
2018-09-15T08:18:17.236Z,8.8
2018-09-15T08:18:17.311Z,8.19
2018-09-15T08:18:17.397Z,10.73
2018-09-15T08:18:17.518Z,10.95
2018-09-15T08:18:17.610Z,11.74
2018-09-15T08:18:17.662Z,10.87
2018-09-15T08:18:17.727Z,11.59
2018-09-15T08:18:17.807Z,10.92
2018-09-15T08:18:17.875Z,11.23
2018-09-15T08:18:17.913Z,10.43
2018-09-15T08:18:17.980Z,9.26
2018-09-15T08:18:18.081Z,10.45
2018-09-15T08:18:18.120Z,9.32
2018-09-15T08:18:18.160Z,8.81
2018-09-15T08:18:18.245Z,9.9
2018-09-15T08:18:18.323Z,9.51
2018-09-15T08:18:18.438Z,8.99
2018-09-15T08:18:18.514Z,10.27
2018-09-15T08:18:18.595Z,10.79
2018-09-15T08:18:18.732Z,10.29
2018-09-15T08:18:18.792Z,8.88
2018-09-15T08:18:18.835Z,9.65
2018-09-15T08:18:18.941Z,11.48
2018-09-15T08:18:18.989Z,11.53
2018-09-15T08:18:19.040Z,10.73
2018-09-15T08:18:19.104Z,9.71
2018-09-15T08:18:19.158Z,9.51
2018-09-15T08:18:19.244Z,10.11
2018-09-15T08:18:19.300Z,10.89
2018-09-15T08:18:19.353Z,10.21
2018-09-15T08:18:19.459Z,10.32
2018-09-15T08:18:19.527Z,10.8
2018-09-15T08:18:19.592Z,9.37
2018-09-15T08:18:19.684Z,11.73
2018-09-15T08:18:19.724Z,11.02
2018-09-15T08:18:19.773Z,11.14
2018-09-15T08:18:19.847Z,12.27
2018-09-15T08:18:19.908Z,10.19
2018-09-15T08:18:19.970Z,9.46
2018-09-15T08:18:20.054Z,9.79
2018-09-15T08:18:20.096Z,9.94
2018-09-15T08:18:20.181Z,13.03
2018-09-15T08:18:20.221Z,11.16
2018-09-15T08:18:20.293Z,9.99
2018-09-15T08:18:20.411Z,9.21
2018-09-15T08:18:20.491Z,8.28
2018-09-15T08:18:20.678Z,9.79
2018-09-15T08:18:20.800Z,10.46
2018-09-15T08:18:20.862Z,8.35
2018-09-15T08:18:20.921Z,9.91
2018-09-15T08:18:21.005Z,9.13
2018-09-15T08:18:21.045Z,9.53
2018-09-15T08:18:21.125Z,10.72
2018-09-15T08:18:21.215Z,8.93
2018-09-15T08:18:21.257Z,10.15
2018-09-15T08:18:21.335Z,8.68
2018-09-15T08:18:21.397Z,10.06
2018-09-15T08:18:21.478Z,9.71
2018-09-15T08:18:21.508Z,10.89
2018-09-15T08:18:21.584Z,10.2
2018-09-15T08:18:21.611Z,11.36
2018-09-15T08:18:21.680Z,8.7
2018-09-15T08:18:21.757Z,10.6
2018-09-15T08:18:21.828Z,10.02
2018-09-15T08:18:21.917Z,9.76
2018-09-15T08:18:21.960Z,9.13
2018-09-15T08:18:22.032Z,10.27
2018-09-15T08:18:22.115Z,9.65
2018-09-15T08:18:22.187Z,9.69
2018-09-15T08:18:22.244Z,9.16
2018-09-15T08:18:22.314Z,10.69
2018-09-15T08:18:22.361Z,9.93
2018-09-15T08:18:22.440Z,8.5
2018-09-15T08:18:22.504Z,10.1
2018-09-15T08:18:22.551Z,10.66
2018-09-15T08:18:22.625Z,9.86
2018-09-15T08:18:22.683Z,9.56
2018-09-15T08:18:22.745Z,10.2
2018-09-15T08:18:22.831Z,10.22
2018-09-15T08:18:22.914Z,8.4
2018-09-15T08:18:22.972Z,10.81
2018-09-15T08:18:23.031Z,9.56
2018-09-15T08:18:23.100Z,12.34
2018-09-15T08:18:23.153Z,11.59
2018-09-15T08:18:23.219Z,7.79
2018-09-15T08:18:23.309Z,9.63
2018-09-15T08:18:23.336Z,8.16
2018-09-15T08:18:23.424Z,9.8
2018-09-15T08:18:23.499Z,11.85
2018-09-15T08:18:23.532Z,12.66
2018-09-15T08:18:23.618Z,9.8
2018-09-15T08:18:23.736Z,11.99
2018-09-15T08:18:23.816Z,11.92
2018-09-15T08:18:23.891Z,13.77
2018-09-15T08:18:23.955Z,11.2
2018-09-15T08:18:24.015Z,10.27
2018-09-15T08:18:24.066Z,13.4
2018-09-15T08:18:24.143Z,14.33
2018-09-15T08:18:24.202Z,16.66
2018-09-15T08:18:24.268Z,14.7
2018-09-15T08:18:24.326Z,16.06
2018-09-15T08:18:24.414Z,15.46
2018-09-15T08:18:24.461Z,14.13
2018-09-15T08:18:24.532Z,19.98
2018-09-15T08:18:24.620Z,14.17
2018-09-15T08:18:24.683Z,12.86
2018-09-15T08:18:24.736Z,13.18
2018-09-15T08:18:24.800Z,11.21
2018-09-15T08:18:24.851Z,10.39
2018-09-15T08:18:24.917Z,10.59
2018-09-15T08:18:24.987Z,8.44
2018-09-15T08:18:25.046Z,11.07
2018-09-15T08:18:25.156Z,9.36
2018-09-15T08:18:25.191Z,11.51
2018-09-15T08:18:25.259Z,11.25
2018-09-15T08:18:25.298Z,11.02
2018-09-15T08:18:25.402Z,10.96
2018-09-15T08:18:25.466Z,11.91
2018-09-15T08:18:25.536Z,12.16
2018-09-15T08:18:25.619Z,12.93
2018-09-15T08:18:25.680Z,11.87
2018-09-15T08:18:25.696Z,11.6
2018-09-15T08:18:25.809Z,12.12
2018-09-15T08:18:25.837Z,12.48
2018-09-15T08:18:25.927Z,14.69
2018-09-15T08:18:25.961Z,11.77
2018-09-15T08:18:26.036Z,11.53
2018-09-15T08:18:26.143Z,10.33
2018-09-15T08:18:26.189Z,12.56
2018-09-15T08:18:26.271Z,11.5
2018-09-15T08:18:26.346Z,11.17
2018-09-15T08:18:26.385Z,10.33
2018-09-15T08:18:26.519Z,9.17
2018-09-15T08:18:26.592Z,9.67
2018-09-15T08:18:26.642Z,9.56
2018-09-15T08:18:26.700Z,10.04
2018-09-15T08:18:26.784Z,10.9
2018-09-15T08:18:26.831Z,11.21
2018-09-15T08:18:26.891Z,10.2
2018-09-15T08:18:26.948Z,11.22
2018-09-15T08:18:27.067Z,9.85
2018-09-15T08:18:27.114Z,12.2
2018-09-15T08:18:27.178Z,9.3
2018-09-15T08:18:27.250Z,9.28
2018-09-15T08:18:27.291Z,9.17
2018-09-15T08:18:27.338Z,8.04
2018-09-15T08:18:27.432Z,9.41
2018-09-15T08:18:27.488Z,11.61
2018-09-15T08:18:27.559Z,10.99
2018-09-15T08:18:27.612Z,10.32
2018-09-15T08:18:27.682Z,11.34
2018-09-15T08:18:27.734Z,10.9
2018-09-15T08:18:27.842Z,11
2018-09-15T08:18:27.945Z,11.12
2018-09-15T08:18:28.002Z,11.84
2018-09-15T08:18:28.066Z,8.15
2018-09-15T08:18:28.106Z,9.66
2018-09-15T08:18:28.176Z,12.14
2018-09-15T08:18:28.237Z,11.49
2018-09-15T08:18:28.299Z,6.68
2018-09-15T08:18:28.368Z,6.94
2018-09-15T08:18:28.438Z,8.77
2018-09-15T08:18:28.484Z,6
2018-09-15T08:18:28.573Z,5.38
2018-09-15T08:18:28.675Z,4.77
2018-09-15T08:18:28.787Z,5.58
2018-09-15T08:18:28.830Z,5.36
2018-09-15T08:18:28.894Z,5.87
2018-09-15T08:18:28.956Z,5.3
2018-09-15T08:18:29.045Z,5.59
2018-09-15T08:18:29.094Z,5.13
2018-09-15T08:18:29.180Z,6.37
2018-09-15T08:18:29.239Z,4.3
2018-09-15T08:18:29.291Z,4.69
2018-09-15T08:18:29.373Z,4.49
2018-09-15T08:18:29.481Z,5.44
2018-09-15T08:18:29.525Z,5.56
2018-09-15T08:18:29.599Z,5.8
2018-09-15T08:18:29.666Z,6.22
2018-09-15T08:18:29.729Z,4.54
2018-09-15T08:18:29.792Z,5.62
2018-09-15T08:18:29.836Z,3.84
2018-09-15T08:18:29.903Z,4.68
2018-09-15T08:18:29.991Z,5.19
2018-09-15T08:18:30.053Z,5.56
2018-09-15T08:18:30.108Z,6.19
2018-09-15T08:18:30.216Z,4.88
2018-09-15T08:18:30.290Z,4.76
2018-09-15T08:18:30.338Z,4.63
2018-09-15T08:18:30.405Z,5.39
2018-09-15T08:18:30.468Z,5.24
2018-09-15T08:18:30.532Z,5.35
2018-09-15T08:18:30.590Z,8.23
2018-09-15T08:18:30.665Z,7.33
2018-09-15T08:18:30.724Z,7.37
2018-09-15T08:18:30.797Z,9
2018-09-15T08:18:30.845Z,7.2
2018-09-15T08:18:30.932Z,9.61
2018-09-15T08:18:31.040Z,7.51
2018-09-15T08:18:31.083Z,7.32
2018-09-15T08:18:31.161Z,7.84
2018-09-15T08:18:31.233Z,7.48
2018-09-15T08:18:31.297Z,8.89
2018-09-15T08:18:31.338Z,9.3
2018-09-15T08:18:31.421Z,10.84
2018-09-15T08:18:31.474Z,8.42
2018-09-15T08:18:31.551Z,8.92
2018-09-15T08:18:31.595Z,6.75
2018-09-15T08:18:31.678Z,6.61
2018-09-15T08:18:31.738Z,8.25
2018-09-15T08:18:31.852Z,6.06
2018-09-15T08:18:31.904Z,6.41
2018-09-15T08:18:31.962Z,6.55
2018-09-15T08:18:32.013Z,5.43
2018-09-15T08:18:32.086Z,6.66
2018-09-15T08:18:32.134Z,6.38
2018-09-15T08:18:32.243Z,7.7
2018-09-15T08:18:32.306Z,4.66
2018-09-15T08:18:32.335Z,6.02
2018-09-15T08:18:32.423Z,5.98
2018-09-15T08:18:32.483Z,5.82
2018-09-15T08:18:32.536Z,4.87
2018-09-15T08:18:32.619Z,5.37
2018-09-15T08:18:32.732Z,7.3
2018-09-15T08:18:32.776Z,6.61
2018-09-15T08:18:32.856Z,6.1
2018-09-15T08:18:32.926Z,7.6
2018-09-15T08:18:32.970Z,7.62
2018-09-15T08:18:33.031Z,4.88
2018-09-15T08:18:33.087Z,7.9
2018-09-15T08:18:33.168Z,5.89
2018-09-15T08:18:33.220Z,6.9
2018-09-15T08:18:33.304Z,6.82
2018-09-15T08:18:33.364Z,7.78
2018-09-15T08:18:33.438Z,9.42
2018-09-15T08:18:33.549Z,7.33
2018-09-15T08:18:33.586Z,7.94
2018-09-15T08:18:33.673Z,6.3
2018-09-15T08:18:33.722Z,6.72
2018-09-15T08:18:33.788Z,7.14
2018-09-15T08:18:33.864Z,6.5
2018-09-15T08:18:33.936Z,6.22
2018-09-15T08:18:33.999Z,6.47
2018-09-15T08:18:34.056Z,7.04
2018-09-15T08:18:34.125Z,8.42
2018-09-15T08:18:34.189Z,7.35
2018-09-15T08:18:34.289Z,7.74
2018-09-15T08:18:34.358Z,5.1
2018-09-15T08:18:34.428Z,5.94
2018-09-15T08:18:34.506Z,6.63
2018-09-15T08:18:34.549Z,7.85
2018-09-15T08:18:34.645Z,9.19
2018-09-15T08:18:34.693Z,10.16
2018-09-15T08:18:34.732Z,10.88
2018-09-15T08:18:34.822Z,10.48
2018-09-15T08:18:34.876Z,10.61
2018-09-15T08:18:34.943Z,10.22
2018-09-15T08:18:35.020Z,11.75
2018-09-15T08:18:35.132Z,28.66
2018-09-15T08:18:35.187Z,33.36
2018-09-15T08:18:35.241Z,22.26
2018-09-15T08:18:35.303Z,11.58
2018-09-15T08:18:35.367Z,17.85
2018-09-15T08:18:35.418Z,15.69
2018-09-15T08:18:35.498Z,17.23
2018-09-15T08:18:35.536Z,14.25
2018-09-15T08:18:35.599Z,10.68
2018-09-15T08:18:35.678Z,10.95
2018-09-15T08:18:35.763Z,10.85
2018-09-15T08:18:35.820Z,8.6
2018-09-15T08:18:35.913Z,11.03
2018-09-15T08:18:35.991Z,12.12
2018-09-15T08:18:36.041Z,10.16
2018-09-15T08:18:36.104Z,10.91
2018-09-15T08:18:36.140Z,10.27
2018-09-15T08:18:36.222Z,9.65
2018-09-15T08:18:36.282Z,10.52
2018-09-15T08:18:36.351Z,9.47
2018-09-15T08:18:36.420Z,11.8
2018-09-15T08:18:36.458Z,7.01
2018-09-15T08:18:36.547Z,7.82
2018-09-15T08:18:36.593Z,8.41
2018-09-15T08:18:36.697Z,9.86
2018-09-15T08:18:36.772Z,8.26
2018-09-15T08:18:36.834Z,7.62
2018-09-15T08:18:36.911Z,7.45
2018-09-15T08:18:36.971Z,8.39
2018-09-15T08:18:37.014Z,8
2018-09-15T08:18:37.077Z,9.2
2018-09-15T08:18:37.141Z,9.14
2018-09-15T08:18:37.203Z,9.83
2018-09-15T08:18:37.278Z,8.06
2018-09-15T08:18:37.338Z,9.12
2018-09-15T08:18:37.390Z,8.61
2018-09-15T08:18:37.477Z,7.79
2018-09-15T08:18:37.568Z,8.3
2018-09-15T08:18:37.665Z,9.33
2018-09-15T08:18:37.786Z,10.41
2018-09-15T08:18:37.861Z,9.94
2018-09-15T08:18:37.912Z,9.88
2018-09-15T08:18:37.972Z,10.22
2018-09-15T08:18:38.045Z,10.57
2018-09-15T08:18:38.106Z,8.61
2018-09-15T08:18:38.173Z,10.63
2018-09-15T08:18:38.229Z,10.01
2018-09-15T08:18:38.302Z,9.24
2018-09-15T08:18:38.402Z,10.34
2018-09-15T08:18:38.412Z,10.54
2018-09-15T08:18:38.524Z,11.4
2018-09-15T08:18:38.606Z,9.12
2018-09-15T08:18:38.664Z,10.04
2018-09-15T08:18:38.723Z,10.81
2018-09-15T08:18:38.780Z,11.39
2018-09-15T08:18:38.835Z,8.92
2018-09-15T08:18:38.921Z,9.72
2018-09-15T08:18:38.982Z,9.6
2018-09-15T08:18:39.020Z,7.93
2018-09-15T08:18:39.082Z,10.73
2018-09-15T08:18:39.147Z,9.28
2018-09-15T08:18:39.207Z,10.06
2018-09-15T08:18:39.283Z,9.4
2018-09-15T08:18:39.361Z,8.51
2018-09-15T08:18:39.446Z,8.63
2018-09-15T08:18:39.491Z,8.75
2018-09-15T08:18:39.554Z,9.42
2018-09-15T08:18:39.623Z,8.94
2018-09-15T08:18:39.683Z,8.47
2018-09-15T08:18:39.742Z,9.12
2018-09-15T08:18:39.786Z,7.32
2018-09-15T08:18:39.866Z,8.58
2018-09-15T08:18:39.926Z,6.65
2018-09-15T08:18:39.991Z,7.45
2018-09-15T08:18:40.061Z,8.5
2018-09-15T08:18:40.164Z,7.61
2018-09-15T08:18:40.216Z,6.95
2018-09-15T08:18:40.287Z,6.53
2018-09-15T08:18:40.362Z,8.55
2018-09-15T08:18:40.422Z,8.86
2018-09-15T08:18:40.476Z,9.27
2018-09-15T08:18:40.546Z,9.83
2018-09-15T08:18:40.625Z,7.62
2018-09-15T08:18:40.688Z,7.2
2018-09-15T08:18:40.743Z,7.81
2018-09-15T08:18:40.795Z,9.01
2018-09-15T08:18:40.862Z,9.49
2018-09-15T08:18:40.984Z,7.62
2018-09-15T08:18:41.060Z,9.95
2018-09-15T08:18:41.097Z,6.84
2018-09-15T08:18:41.166Z,7.93
2018-09-15T08:18:41.269Z,8.79
2018-09-15T08:18:41.312Z,9.4
2018-09-15T08:18:41.375Z,9.72
2018-09-15T08:18:41.455Z,8.31
2018-09-15T08:18:41.540Z,7.89
2018-09-15T08:18:41.595Z,7.77
2018-09-15T08:18:41.635Z,7.74
2018-09-15T08:18:41.706Z,9.9
2018-09-15T08:18:41.813Z,8.7